createdAt,value
2023-12-04T00:01:52.484Z,100601.66
2023-12-04T00:04:19.317Z,100599.09
2023-12-04T00:06:45.941Z,100602.53
2023-12-04T00:09:12.914Z,100595.72
2023-12-04T00:11:42.350Z,100582.97
2023-12-04T00:14:09.255Z,100579.53
2023-12-04T00:16:36.700Z,100577.88
2023-12-04T00:19:03.452Z,100584.66
2023-12-04T00:21:30.098Z,100577.03
2023-12-04T00:23:56.803Z,100571.06
2023-12-04T00:26:23.342Z,100576.97
2023-12-04T00:28:49.929Z,100562.56
2023-12-04T00:31:16.491Z,100572.78
2023-12-04T00:33:43.190Z,100572.75
2023-12-04T00:36:10.777Z,100569.34
2023-12-04T00:38:37.302Z,100556.59
2023-12-04T00:41:04.009Z,100551.53
2023-12-04T00:43:30.587Z,100551.50
2023-12-04T00:45:58.142Z,100548.94
2023-12-04T00:48:24.833Z,100549.78
2023-12-04T00:50:52.695Z,100548.06
2023-12-04T00:53:19.313Z,100544.69
2023-12-04T00:55:45.904Z,100535.34
2023-12-04T00:58:13.825Z,100528.53
2023-12-04T01:00:40.588Z,100536.19
2023-12-04T01:03:10.311Z,100543.00
2023-12-04T01:05:36.989Z,100536.25
2023-12-04T01:08:03.721Z,100530.25
2023-12-04T01:10:31.252Z,100527.69
2023-12-04T01:12:57.835Z,100516.59
2023-12-04T01:15:24.754Z,100520.00
2023-12-04T01:17:53.965Z,100526.75
2023-12-04T01:20:20.492Z,100515.81
2023-12-04T01:22:47.087Z,100511.59
2023-12-04T01:25:13.775Z,100521.72
2023-12-04T01:27:41.155Z,100511.56
2023-12-04T01:30:11.317Z,100503.09
2023-12-04T01:32:37.808Z,100494.59
2023-12-04T01:35:04.691Z,100498.78
2023-12-04T01:37:31.222Z,100497.97
2023-12-04T01:39:57.708Z,100494.53
2023-12-04T01:42:24.245Z,100499.59
2023-12-04T01:44:50.820Z,100501.31
2023-12-04T01:47:18.908Z,100498.78
2023-12-04T01:49:45.676Z,100486.03
2023-12-04T01:52:12.950Z,100491.13
2023-12-04T01:54:40.185Z,100478.41
2023-12-04T01:57:07.244Z,100477.56
2023-12-04T01:59:34.106Z,100482.66
2023-12-04T02:02:01.680Z,100478.41
2023-12-04T02:04:28.302Z,100479.25
2023-12-04T02:06:55.563Z,100479.25
2023-12-04T02:09:22.495Z,100470.75
2023-12-04T02:11:49.541Z,100483.50
2023-12-04T02:14:16.254Z,100491.16
2023-12-04T02:16:45.022Z,100498.78
2023-12-04T02:19:14.405Z,100497.13
2023-12-04T02:21:41.217Z,100491.09
2023-12-04T02:24:07.914Z,100486.00
2023-12-04T02:26:40.712Z,100480.97
2023-12-04T02:29:12.632Z,100480.13
2023-12-04T02:31:40.921Z,100479.25
2023-12-04T02:34:08.449Z,100482.66
2023-12-04T02:36:37.256Z,100479.25
2023-12-04T02:39:06.949Z,100475.84
2023-12-04T02:41:35.561Z,100474.97
2023-12-04T02:44:02.078Z,100452.06
2023-12-04T02:46:28.606Z,100453.78
2023-12-04T02:48:55.202Z,100446.16
2023-12-04T02:51:21.833Z,100452.09
2023-12-04T02:53:48.429Z,100447.00
2023-12-04T02:56:14.958Z,100432.56
2023-12-04T02:58:41.503Z,100435.97
2023-12-04T03:01:08.137Z,100435.13
2023-12-04T03:03:34.712Z,100428.38
2023-12-04T03:06:01.481Z,100428.25
2023-12-04T03:08:28.099Z,100424.94
2023-12-04T03:10:54.615Z,100421.56
2023-12-04T03:13:21.170Z,100411.38
2023-12-04T03:15:47.739Z,100410.56
2023-12-04T03:18:14.418Z,100416.50
2023-12-04T03:20:41.142Z,100411.34
2023-12-04T03:23:07.814Z,100398.66
2023-12-04T03:25:34.390Z,100404.59
2023-12-04T03:28:00.989Z,100399.50
2023-12-04T03:30:27.560Z,100402.03
2023-12-04T03:32:54.400Z,100398.66
2023-12-04T03:35:21.036Z,100396.09
2023-12-04T03:37:47.634Z,100391.00
2023-12-04T03:40:14.224Z,100385.09
2023-12-04T03:42:41.911Z,100377.41
2023-12-04T03:45:08.857Z,100374.88
2023-12-04T03:47:35.526Z,100368.09
2023-12-04T03:50:02.532Z,100365.56
2023-12-04T03:52:29.101Z,100362.16
2023-12-04T03:54:55.637Z,100366.41
2023-12-04T03:57:22.213Z,100359.63
2023-12-04T03:59:48.781Z,100351.13
2023-12-04T04:02:15.341Z,100345.19
2023-12-04T04:04:41.815Z,100340.97
2023-12-04T04:07:09.988Z,100346.03
2023-12-04T04:09:36.614Z,100340.09
2023-12-04T04:12:03.601Z,100333.31
2023-12-04T04:14:30.161Z,100330.75
2023-12-04T04:16:56.798Z,100337.56
2023-12-04T04:19:23.387Z,100321.41
2023-12-04T04:21:49.976Z,100333.31
2023-12-04T04:24:16.495Z,100338.41
2023-12-04T04:26:43.036Z,100337.56
2023-12-04T04:29:10.638Z,100341.78
2023-12-04T04:31:37.519Z,100332.47
2023-12-04T04:34:04.312Z,100337.56
2023-12-04T04:36:30.917Z,100335.88
2023-12-04T04:38:57.981Z,100335.88
2023-12-04T04:41:24.504Z,100335.00
2023-12-04T04:43:51.026Z,100340.94
2023-12-04T04:46:17.481Z,100342.63
2023-12-04T04:48:44.054Z,100345.19
2023-12-04T04:51:10.667Z,100341.78
2023-12-04T04:53:37.220Z,100351.97
2023-12-04T04:56:04.020Z,100348.59
2023-12-04T04:58:30.560Z,100339.25
2023-12-04T05:00:57.198Z,100339.25
2023-12-04T05:03:25.278Z,100332.44
2023-12-04T05:05:52.204Z,100318.88
2023-12-04T05:08:18.749Z,100310.41
2023-12-04T05:10:45.361Z,100318.91
2023-12-04T05:13:11.966Z,100317.19
2023-12-04T05:15:38.641Z,100317.19
2023-12-04T05:18:05.516Z,100318.03
2023-12-04T05:20:32.088Z,100312.09
2023-12-04T05:22:58.618Z,100311.25
2023-12-04T05:25:29.320Z,100312.09
2023-12-04T05:27:58.440Z,100301.91
2023-12-04T05:30:25.016Z,100305.31
2023-12-04T05:32:51.668Z,100302.78
2023-12-04T05:35:18.915Z,100297.66
2023-12-04T05:37:46.215Z,100289.19
2023-12-04T05:40:13.113Z,100303.63
2023-12-04T05:42:39.700Z,100301.09
2023-12-04T05:45:08.254Z,100295.16
2023-12-04T05:47:35.776Z,100300.22
2023-12-04T05:50:02.596Z,100286.66
2023-12-04T05:52:29.210Z,100281.56
2023-12-04T05:54:56.096Z,100274.78
2023-12-04T05:57:22.662Z,100278.16
2023-12-04T05:59:49.546Z,100270.53
2023-12-04T06:02:16.519Z,100275.63
2023-12-04T06:04:43.283Z,100275.66
2023-12-04T06:07:10.287Z,100278.19
2023-12-04T06:09:37.963Z,100271.38
2023-12-04T06:12:09.159Z,100256.97
2023-12-04T06:14:36.133Z,100258.66
2023-12-04T06:17:03.129Z,100262.06
2023-12-04T06:19:30.593Z,100256.97
2023-12-04T06:21:57.402Z,100258.66
2023-12-04T06:24:24.401Z,100245.94
2023-12-04T06:26:51.764Z,100237.47
2023-12-04T06:29:19.303Z,100245.09
2023-12-04T06:31:46.265Z,100242.56
2023-12-04T06:34:13.326Z,100245.09
2023-12-04T06:36:42.221Z,100246.75
2023-12-04T06:39:13.403Z,100243.38
2023-12-04T06:41:41.061Z,100247.66
2023-12-04T06:44:08.701Z,100247.63
2023-12-04T06:46:38.563Z,100249.31
2023-12-04T06:49:07.526Z,100259.47
2023-12-04T06:51:34.302Z,100256.13
2023-12-04T06:54:00.949Z,100258.69
2023-12-04T06:56:27.562Z,100253.59
2023-12-04T06:58:54.212Z,100257.84
2023-12-04T07:01:20.815Z,100253.56
2023-12-04T07:03:47.428Z,100253.56
2023-12-04T07:06:15.647Z,100244.25
2023-12-04T07:09:00.356Z,100234.91
2023-12-04T07:11:27.219Z,100220.50
2023-12-04T07:13:53.913Z,100218.78
2023-12-04T07:16:20.676Z,100228.13
2023-12-04T07:18:47.415Z,100224.75
2023-12-04T07:21:14.078Z,100219.66
2023-12-04T07:23:40.693Z,100212.03
2023-12-04T07:26:07.867Z,100206.09
2023-12-04T07:28:35.296Z,100209.50
2023-12-04T07:31:04.652Z,100197.59
2023-12-04T07:33:31.323Z,100195.94
2023-12-04T07:35:57.919Z,100186.56
2023-12-04T07:38:27.154Z,100167.06
2023-12-04T07:40:55.238Z,100164.44
2023-12-04T07:43:21.847Z,100172.91
2023-12-04T07:45:48.533Z,100177.22
2023-12-04T07:48:15.170Z,100166.88
2023-12-04T07:50:41.989Z,100167.69
2023-12-04T07:53:10.919Z,100181.19
2023-12-04T07:55:37.543Z,100186.28
2023-12-04T07:58:04.226Z,100187.00
2023-12-04T08:00:31.023Z,100189.69
2023-12-04T08:02:57.598Z,100172.66
2023-12-04T08:05:24.220Z,100176.09
2023-12-04T08:07:50.773Z,100170.16
2023-12-04T08:10:17.334Z,100167.63
2023-12-04T08:12:47.470Z,100172.59
2023-12-04T08:15:14.400Z,100170.03
2023-12-04T08:17:41.547Z,100176.75
2023-12-04T08:20:08.867Z,100180.28
2023-12-04T08:22:35.483Z,100179.44
2023-12-04T08:25:02.346Z,100159.84
2023-12-04T08:27:30.147Z,100162.31
2023-12-04T08:29:56.870Z,100146.84
2023-12-04T08:32:23.627Z,100152.84
2023-12-04T08:34:50.238Z,100153.53
2023-12-04T08:37:17.016Z,100144.41
2023-12-04T08:39:43.682Z,100138.44
2023-12-04T08:42:15.176Z,100136.78
2023-12-04T08:44:48.668Z,100135.00
2023-12-04T08:47:15.195Z,100119.75
2023-12-04T08:49:46.392Z,100111.03
2023-12-04T08:52:16.058Z,100112.72
2023-12-04T08:54:43.092Z,100106.75
2023-12-04T08:57:10.658Z,100103.47
2023-12-04T08:59:37.343Z,100095.03
2023-12-04T09:02:05.492Z,100104.41
2023-12-04T09:04:33.096Z,100098.06
2023-12-04T09:09:30.455Z,100091.38
2023-12-04T09:11:57.873Z,100104.13
2023-12-04T09:14:24.645Z,100089.50
2023-12-04T09:16:51.237Z,100093.78
2023-12-04T09:19:17.947Z,100092.03
2023-12-04T09:21:45.471Z,100091.06
2023-12-04T09:24:15.948Z,100090.66
2023-12-04T09:26:44.664Z,100077.97
2023-12-04T09:29:14.429Z,100080.28
2023-12-04T09:32:07.203Z,100097.66
2023-12-04T09:34:36.556Z,100091.72
2023-12-04T09:37:09.017Z,100098.50
2023-12-04T09:39:38.202Z,100088.44
2023-12-04T09:42:05.148Z,100088.38
2023-12-04T09:44:32.082Z,100078.94
2023-12-04T09:47:00.718Z,100083.03
2023-12-04T09:49:30.275Z,100075.38
2023-12-04T09:51:59.447Z,100073.97
2023-12-04T09:54:27.558Z,100067.09
2023-12-04T09:56:54.468Z,100072.25
2023-12-04T09:59:26.287Z,100066.44
2023-12-04T10:01:53.627Z,100064.50
2023-12-04T10:04:22.248Z,100058.25
2023-12-04T10:06:51.679Z,100061.94
2023-12-04T10:09:19.339Z,100068.34
2023-12-04T10:11:46.892Z,100055.09
2023-12-04T10:14:18.599Z,100069.44
2023-12-04T10:16:46.181Z,100053.28
2023-12-04T10:19:21.495Z,100064.31
2023-12-04T10:21:49.973Z,100054.97
2023-12-04T10:24:37.406Z,100047.28
2023-12-04T10:27:06.290Z,100037.03
2023-12-04T10:29:44.890Z,100043.56
2023-12-04T10:32:11.812Z,100036.16
2023-12-04T10:34:38.763Z,100031.59
2023-12-04T10:37:06.182Z,100025.81
2023-12-04T10:39:48.171Z,100023.78
2023-12-04T10:42:26.967Z,100021.00
2023-12-04T10:44:56.232Z,100015.28
2023-12-04T10:47:23.008Z,100015.56
2023-12-04T10:49:53.228Z,100015.81
2023-12-04T10:52:20.480Z,100007.94
2023-12-04T10:54:47.950Z,100000.59
2023-12-04T10:57:21.738Z,100012.44
2023-12-04T10:59:51.774Z,100015.03
2023-12-04T11:02:24.572Z,100012.16
2023-12-04T11:04:55.999Z,100002.44
2023-12-04T11:07:25.474Z,100000.59
2023-12-04T11:09:52.536Z,99990.22
2023-12-04T11:12:26.434Z,100000.63
2023-12-04T11:15:00.264Z,99991.97
2023-12-04T11:17:34.167Z,99992.19
2023-12-04T11:20:08.659Z,99987.84
2023-12-04T11:22:36.424Z,99980.28
2023-12-04T11:25:06.681Z,99972.78
2023-12-04T11:27:33.652Z,99972.38
2023-12-04T11:30:01.032Z,99973.00
2023-12-04T11:32:29.756Z,99978.78
2023-12-04T11:34:57.556Z,99968.22
2023-12-04T11:37:24.731Z,99970.81
2023-12-04T11:39:52.357Z,99969.78
2023-12-04T11:42:25.699Z,99958.47
2023-12-04T11:44:59.830Z,99956.44
2023-12-04T11:47:29.284Z,99959.84
2023-12-04T11:49:56.042Z,99939.25
2023-12-04T11:52:35.188Z,99933.56
2023-12-04T11:55:06.184Z,99928.94
2023-12-04T11:57:35.573Z,99917.72
2023-12-04T12:00:21.051Z,99909.38
2023-12-04T12:03:15.245Z,99899.88
2023-12-04T12:05:40.288Z,99890.38
2023-12-04T12:08:09.083Z,99896.50
2023-12-04T12:10:36.358Z,99886.94
2023-12-04T12:13:03.272Z,99880.91
2023-12-04T12:15:30.590Z,99892.59
2023-12-04T12:17:57.409Z,99883.13
2023-12-04T12:20:24.320Z,99879.09
2023-12-04T12:22:50.945Z,99865.53
2023-12-04T12:25:18.213Z,99865.44
2023-12-04T12:27:45.895Z,99855.25
2023-12-04T12:30:12.793Z,99859.34
2023-12-04T12:32:39.452Z,99844.03
2023-12-04T12:35:08.646Z,99835.53
2023-12-04T12:37:36.089Z,99837.00
2023-12-04T12:40:05.806Z,99833.88
2023-12-04T12:42:34.403Z,99837.94
2023-12-04T12:45:03.473Z,99839.06
2023-12-04T12:47:30.905Z,99821.97
2023-12-04T12:50:02.771Z,99827.88
2023-12-04T12:52:30.447Z,99822.78
2023-12-04T12:54:57.340Z,99807.94
2023-12-04T12:57:24.119Z,99810.00
2023-12-04T12:59:50.881Z,99806.63
2023-12-04T13:02:17.768Z,99797.44
2023-12-04T13:04:46.707Z,99798.22
2023-12-04T13:07:13.753Z,99795.50
2023-12-04T13:09:40.637Z,99783.88
2023-12-04T13:12:08.045Z,99771.34
2023-12-04T13:14:36.847Z,99769.38
2023-12-04T13:17:05.055Z,99765.44
2023-12-04T13:19:36.044Z,99753.81
2023-12-04T13:22:02.981Z,99758.94
2023-12-04T13:24:29.574Z,99746.59
2023-12-04T13:26:56.287Z,99743.09
2023-12-04T13:29:22.889Z,99734.91
2023-12-04T13:31:51.582Z,99744.34
2023-12-04T13:34:18.930Z,99739.09
2023-12-04T13:36:45.816Z,99725.44
2023-12-04T13:39:18.166Z,99727.50
2023-12-04T13:42:06.457Z,99719.78
2023-12-04T13:44:34.496Z,99711.88
2023-12-04T13:47:01.451Z,99710.78
2023-12-04T13:49:28.165Z,99709.16
2023-12-04T13:52:00.431Z,99701.16
2023-12-04T13:54:43.571Z,99703.16
2023-12-04T13:57:10.215Z,99682.81
2023-12-04T13:59:39.709Z,99681.91
2023-12-04T14:02:11.590Z,99672.63
2023-12-04T14:04:42.947Z,99675.06
2023-12-04T14:07:14.461Z,99672.53
2023-12-04T14:09:41.731Z,99671.22
2023-12-04T14:12:09.686Z,99674.78
2023-12-04T14:14:38.739Z,99660.78
2023-12-04T14:17:06.753Z,99661.00
2023-12-04T14:19:33.450Z,99661.00
2023-12-04T14:22:00.691Z,99655.66
2023-12-04T14:24:27.845Z,99654.53
2023-12-04T14:30:37.131Z,99638.75
2023-12-04T14:33:17.979Z,99636.38
2023-12-04T14:35:55.953Z,99632.25
2023-12-04T14:38:45.398Z,99615.91
2023-12-04T14:41:20.013Z,99609.69
2023-12-04T14:44:21.765Z,99604.00
2023-12-04T14:47:46.647Z,99605.72
2023-12-04T14:51:17.010Z,99599.22
2023-12-04T14:57:40.989Z,99602.44
2023-12-04T15:00:14.579Z,99601.44
2023-12-04T15:02:41.685Z,99606.41
2023-12-04T15:05:08.534Z,99605.75
2023-12-04T15:07:36.006Z,99594.97
2023-12-04T15:10:25.275Z,99600.94
2023-12-04T15:13:10.430Z,99596.06
2023-12-04T15:15:55.542Z,99589.94
2023-12-04T15:18:43.525Z,99590.91
2023-12-04T15:21:10.201Z,99583.78
2023-12-04T15:23:36.827Z,99589.03
2023-12-04T15:26:03.954Z,99571.97
2023-12-04T15:28:30.639Z,99571.31
2023-12-04T15:30:57.741Z,99572.56
2023-12-04T15:33:27.247Z,99557.16
2023-12-04T15:35:54.091Z,99563.94
2023-12-04T15:38:21.372Z,99562.38
2023-12-04T15:40:48.491Z,99560.69
2023-12-04T15:43:15.270Z,99552.94
2023-12-04T15:45:41.891Z,99554.66
2023-12-04T15:48:09.022Z,99542.81
2023-12-04T15:50:35.660Z,99540.00
2023-12-04T15:53:02.899Z,99528.38
2023-12-04T15:55:29.882Z,99531.44
2023-12-04T15:57:56.799Z,99530.56
2023-12-04T16:00:24.428Z,99530.41
2023-12-04T16:02:51.470Z,99525.09
2023-12-04T16:05:18.709Z,99534.00
2023-12-04T16:07:46.408Z,99540.09
2023-12-04T16:10:16.460Z,99535.34
2023-12-04T16:12:43.655Z,99529.19
2023-12-04T16:15:11.233Z,99531.41
2023-12-04T16:17:39.232Z,99524.00
2023-12-04T16:20:14.248Z,99517.84
2023-12-04T16:22:42.510Z,99520.31
2023-12-04T16:25:10.636Z,99515.56
2023-12-04T16:27:39.442Z,99520.69
2023-12-04T16:30:07.753Z,99514.38
2023-12-04T16:32:34.702Z,99502.94
2023-12-04T16:35:02.465Z,99508.78
2023-12-04T16:37:29.825Z,99498.28
2023-12-04T16:39:56.838Z,99497.09
2023-12-04T16:42:23.560Z,99496.22
2023-12-04T16:44:50.217Z,99489.59
2023-12-04T16:47:16.810Z,99485.28
2023-12-04T16:49:43.523Z,99478.47
2023-12-04T16:52:15.644Z,99469.59
2023-12-04T16:54:43.277Z,99468.66
2023-12-04T16:57:10.982Z,99468.88
2023-12-04T16:59:38.576Z,99472.81
2023-12-04T17:02:06.911Z,99465.38
2023-12-04T17:04:33.772Z,99459.22
2023-12-04T17:07:00.653Z,99468.13
2023-12-04T17:09:27.331Z,99455.53
2023-12-04T17:11:54.030Z,99459.47
2023-12-04T17:14:26.327Z,99467.00
2023-12-04T17:16:52.893Z,99460.47
2023-12-04T17:19:19.645Z,99459.66
2023-12-04T17:21:46.358Z,99462.41
2023-12-04T17:24:13.102Z,99449.50
2023-12-04T17:26:39.893Z,99448.03
2023-12-04T17:29:06.562Z,99445.59
2023-12-04T17:31:33.157Z,99439.72
2023-12-04T17:34:00.032Z,99438.84
2023-12-04T17:36:26.693Z,99428.06
2023-12-04T17:38:53.359Z,99416.78
2023-12-04T17:41:19.990Z,99420.72
2023-12-04T17:43:46.784Z,99413.72
2023-12-04T17:46:14.304Z,99418.91
2023-12-04T17:48:42.225Z,99413.47
2023-12-04T17:51:15.322Z,99404.88
2023-12-04T17:53:41.974Z,99402.41
2023-12-04T17:56:09.272Z,99393.44
2023-12-04T17:58:35.849Z,99400.50
2023-12-04T18:01:02.623Z,99402.72
2023-12-04T18:03:29.306Z,99401.22
2023-12-04T18:05:56.058Z,99402.97
2023-12-04T18:08:22.827Z,99409.69
2023-12-04T18:10:49.434Z,99401.56
2023-12-04T18:13:16.021Z,99404.16
2023-12-04T18:15:42.799Z,99398.41
2023-12-04T18:18:09.524Z,99401.28
2023-12-04T18:20:36.180Z,99388.69
2023-12-04T18:23:02.727Z,99384.09
2023-12-04T18:25:29.713Z,99378.19
2023-12-04T18:27:59.943Z,99383.22
2023-12-04T18:30:28.601Z,99371.31
2023-12-04T18:32:56.035Z,99374.22
2023-12-04T18:35:23.642Z,99367.78
2023-12-04T18:37:58.580Z,99366.97
2023-12-04T18:40:26.010Z,99360.84
2023-12-04T18:42:52.937Z,99363.78
2023-12-04T18:45:20.031Z,99357.53
2023-12-04T18:47:54.342Z,99364.13
2023-12-04T18:50:21.665Z,99357.34
2023-12-04T18:52:50.490Z,99355.44
2023-12-04T18:55:17.063Z,99352.78
2023-12-04T18:57:43.613Z,99341.94
2023-12-04T19:00:10.749Z,99341.22
2023-12-04T19:02:37.988Z,99336.91
2023-12-04T19:05:05.225Z,99336.19
2023-12-04T19:07:31.917Z,99342.59
2023-12-04T19:09:58.575Z,99338.47
2023-12-04T19:12:26.123Z,99320.22
2023-12-04T19:14:52.656Z,99325.63
2023-12-04T19:17:19.245Z,99327.59
2023-12-04T19:19:45.913Z,99320.28
2023-12-04T19:22:12.443Z,99317.69
2023-12-04T19:24:39.088Z,99320.16
2023-12-04T19:27:05.865Z,99321.06
2023-12-04T19:29:32.398Z,99319.00
2023-12-04T19:31:58.940Z,99322.34
2023-12-04T19:34:26.976Z,99314.69
2023-12-04T19:36:53.952Z,99319.00
2023-12-04T19:39:20.656Z,99308.56
2023-12-04T19:41:47.212Z,99304.44
2023-12-04T19:44:13.871Z,99293.97
2023-12-04T19:46:43.940Z,99291.44
2023-12-04T19:49:11.191Z,99289.25
2023-12-04T19:51:44.791Z,99296.78
2023-12-04T19:54:11.640Z,99295.94
2023-12-04T19:56:42.285Z,99289.69
2023-12-04T19:59:08.966Z,99288.81
2023-12-04T20:01:35.618Z,99294.19
2023-12-04T20:04:02.315Z,99277.72
2023-12-04T20:06:29.085Z,99273.31
2023-12-04T20:08:55.788Z,99279.38
2023-12-04T20:11:22.533Z,99274.63
2023-12-04T20:13:49.058Z,99276.28
2023-12-04T20:16:16.257Z,99280.59
2023-12-04T20:18:43.335Z,99267.59
2023-12-04T20:21:10.285Z,99274.56
2023-12-04T20:23:37.956Z,99272.78
2023-12-04T20:26:05.036Z,99281.41
2023-12-04T20:28:32.507Z,99273.59
2023-12-04T20:30:59.207Z,99275.41
2023-12-04T20:33:26.354Z,99278.06
2023-12-04T20:35:53.185Z,99270.22
2023-12-04T20:38:19.731Z,99268.72
2023-12-04T20:40:49.532Z,99265.06
2023-12-04T20:43:16.279Z,99262.38
2023-12-04T20:45:44.668Z,99263.03
2023-12-04T20:48:12.803Z,99254.66
2023-12-04T20:50:42.343Z,99257.56
2023-12-04T20:53:09.915Z,99251.41
2023-12-04T20:55:37.008Z,99243.88
2023-12-04T20:58:06.125Z,99245.44
2023-12-04T21:00:35.405Z,99231.63
2023-12-04T21:03:07.307Z,99233.94
2023-12-04T21:05:34.207Z,99235.31
2023-12-04T21:08:00.804Z,99230.06
2023-12-04T21:10:27.344Z,99237.88
2023-12-04T21:12:54.866Z,99237.66
2023-12-04T21:15:21.543Z,99225.56
2023-12-04T21:17:48.220Z,99235.78
2023-12-04T21:20:14.983Z,99215.47
2023-12-04T21:22:42.845Z,99213.44
2023-12-04T21:25:09.956Z,99214.00
2023-12-04T21:27:36.895Z,99212.50
2023-12-04T21:30:05.664Z,99214.31
2023-12-04T21:32:32.838Z,99209.91
2023-12-04T21:35:00.052Z,99206.69
2023-12-04T21:37:26.673Z,99208.56
2023-12-04T21:39:53.565Z,99207.84
2023-12-04T21:42:22.733Z,99202.19
2023-12-04T21:44:49.342Z,99201.59
2023-12-04T21:47:15.949Z,99199.16
2023-12-04T21:49:44.484Z,99192.28
2023-12-04T21:52:11.149Z,99199.28
2023-12-04T21:54:37.788Z,99189.91
2023-12-04T21:57:04.887Z,99193.72
2023-12-04T21:59:43.438Z,99188.19
2023-12-04T22:02:10.052Z,99184.56
2023-12-04T22:04:36.683Z,99180.22
2023-12-04T22:07:04.464Z,99179.38
2023-12-04T22:09:31.139Z,99173.66
2023-12-04T22:11:57.792Z,99173.91
2023-12-04T22:14:24.705Z,99174.66
2023-12-04T22:16:51.557Z,99172.09
2023-12-04T22:19:18.555Z,99164.25
2023-12-04T22:21:45.392Z,99158.78
2023-12-04T22:24:12.033Z,99159.66
2023-12-04T22:26:38.628Z,99162.06
2023-12-04T22:29:05.137Z,99156.75
2023-12-04T22:31:31.655Z,99153.63
2023-12-04T22:33:58.300Z,99160.06
2023-12-04T22:36:24.852Z,99155.69
2023-12-04T22:38:51.412Z,99152.34
2023-12-04T22:41:17.929Z,99171.13
2023-12-04T22:43:46.171Z,99171.88
2023-12-04T22:46:12.926Z,99176.84
2023-12-04T22:48:39.810Z,99162.91
2023-12-04T22:51:06.845Z,99164.97
2023-12-04T22:53:33.438Z,99160.78
2023-12-04T22:56:00.299Z,99160.06
2023-12-04T22:58:26.906Z,99161.59
2023-12-04T23:00:54.334Z,99164.41
2023-12-04T23:03:21.839Z,99152.59
2023-12-04T23:05:49.825Z,99151.34
2023-12-04T23:08:18.611Z,99163.44
2023-12-04T23:10:45.909Z,99152.47
2023-12-04T23:13:13.307Z,99150.84
2023-12-04T23:15:40.261Z,99149.28
2023-12-04T23:18:06.902Z,99151.16
2023-12-04T23:20:33.901Z,99140.63
2023-12-04T23:23:00.469Z,99143.78
2023-12-04T23:25:27.044Z,99145.22
2023-12-04T23:27:53.660Z,99138.16
2023-12-04T23:30:20.464Z,99131.56
2023-12-04T23:32:47.233Z,99133.19
2023-12-04T23:35:13.914Z,99134.44
2023-12-04T23:37:40.476Z,99137.72
2023-12-04T23:40:07.552Z,99129.41
2023-12-04T23:42:34.229Z,99133.31
2023-12-04T23:45:00.883Z,99129.63
2023-12-04T23:47:27.482Z,99129.53
2023-12-04T23:49:54.202Z,99124.00
2023-12-04T23:52:20.821Z,99130.41
2023-12-04T23:54:47.404Z,99114.03
2023-12-04T23:57:13.967Z,99115.00
2023-12-04T23:59:41.106Z,99124.16
